createdAt,value
2022-08-12T00:02:42.671Z,3.42
2022-08-12T00:05:28.320Z,2.13
2022-08-12T00:08:15.699Z,2.55
2022-08-12T00:11:00.440Z,2.03
2022-08-12T00:13:57.529Z,1.90
2022-08-12T00:16:45.224Z,3.28
2022-08-12T00:19:30.027Z,2.35
2022-08-12T00:22:14.740Z,2.00
2022-08-12T00:24:59.554Z,2.97
2022-08-12T00:27:45.077Z,2.63
2022-08-12T00:30:30.413Z,2.67
2022-08-12T00:33:15.784Z,2.30
2022-08-12T00:36:00.513Z,2.28
2022-08-12T00:38:45.834Z,1.85
2022-08-12T00:41:31.779Z,3.00
2022-08-12T00:43:59.195Z,2.47
2022-08-12T00:46:36.474Z,2.85
2022-08-12T00:49:03.450Z,2.38
2022-08-12T00:51:48.809Z,3.25
2022-08-12T00:54:18.219Z,3.10
2022-08-12T00:56:47.661Z,3.08
2022-08-12T00:59:14.063Z,3.30
2022-08-12T01:02:02.406Z,2.78
2022-08-12T01:04:48.956Z,3.35
2022-08-12T01:07:35.983Z,2.92
2022-08-12T01:10:29.558Z,3.63
2022-08-12T01:13:18.923Z,2.97
2022-08-12T01:15:46.572Z,3.75
2022-08-12T01:18:13.696Z,3.10
2022-08-12T01:20:49.830Z,3.13
2022-08-12T01:23:25.166Z,4.35
2022-08-12T01:25:55.971Z,3.10
2022-08-12T01:28:24.030Z,3.90
2022-08-12T01:30:50.557Z,3.85
2022-08-12T01:33:18.213Z,3.38
2022-08-12T01:35:57.957Z,2.88
2022-08-12T01:38:35.590Z,4.00
2022-08-12T01:41:02.386Z,3.03
2022-08-12T01:43:29.096Z,3.60
2022-08-12T01:46:09.444Z,2.85
2022-08-12T01:48:54.408Z,4.63
2022-08-12T01:52:15.821Z,3.50
2022-08-12T01:54:26.731Z,4.13
2022-08-12T01:56:53.002Z,3.83
2022-08-12T01:59:44.296Z,4.55
2022-08-12T02:02:14.834Z,4.57
2022-08-12T02:05:22.218Z,4.35
2022-08-12T02:08:16.048Z,3.90
2022-08-12T02:11:17.300Z,4.82
2022-08-12T02:13:49.140Z,4.05
2022-08-12T02:16:36.234Z,4.57
2022-08-12T02:19:22.581Z,4.28
2022-08-12T02:21:58.582Z,4.60
2022-08-12T02:24:26.881Z,4.57
2022-08-12T02:26:56.338Z,4.43
2022-08-12T02:29:22.656Z,4.28
2022-08-12T02:31:49.875Z,4.30
2022-08-12T02:34:17.640Z,4.25
2022-08-12T02:36:44.794Z,5.28
2022-08-12T02:39:14.188Z,4.07
2022-08-12T02:41:43.016Z,3.90
2022-08-12T02:44:09.858Z,4.53
2022-08-12T02:46:37.331Z,4.20
2022-08-12T02:49:10.212Z,4.30
2022-08-12T02:51:41.390Z,3.80
2022-08-12T02:54:08.086Z,4.80
2022-08-12T02:56:37.516Z,4.07
2022-08-12T02:59:04.206Z,4.18
2022-08-12T03:01:34.736Z,4.75
2022-08-12T03:04:03.476Z,5.07
2022-08-12T03:06:43.148Z,4.07
2022-08-12T03:09:14.034Z,4.07
2022-08-12T03:11:47.745Z,4.63
2022-08-12T03:14:17.446Z,4.65
2022-08-12T03:16:50.129Z,4.43
2022-08-12T03:19:20.174Z,6.38
2022-08-12T03:24:23.898Z,4.03
2022-08-12T03:26:51.744Z,4.78
2022-08-12T03:29:19.372Z,4.70
2022-08-12T03:31:45.821Z,3.78
2022-08-12T03:34:19.029Z,5.63
2022-08-12T03:36:47.642Z,6.35
2022-08-12T03:39:17.064Z,5.93
2022-08-12T03:41:57.985Z,5.05
2022-08-12T03:44:50.598Z,4.40
2022-08-12T03:47:41.370Z,5.07
2022-08-12T03:50:26.629Z,5.90
2022-08-12T03:53:12.123Z,4.90
2022-08-12T03:55:56.883Z,4.13
2022-08-12T03:58:42.381Z,5.15
2022-08-12T04:01:08.865Z,4.63
2022-08-12T04:03:53.725Z,4.75
2022-08-12T04:06:34.958Z,4.90
2022-08-12T04:09:02.451Z,4.38
2022-08-12T04:11:47.533Z,4.50
2022-08-12T04:14:19.696Z,5.68
2022-08-12T04:16:49.663Z,4.95
2022-08-12T04:19:16.372Z,4.35
2022-08-12T04:22:01.692Z,4.85
2022-08-12T04:24:34.893Z,5.88
2022-08-12T04:27:02.156Z,5.32
2022-08-12T04:30:17.182Z,5.57
2022-08-12T04:32:15.643Z,6.35
2022-08-12T04:34:42.186Z,5.93
2022-08-12T04:37:08.791Z,4.68
2022-08-12T04:39:35.220Z,6.00
2022-08-12T04:42:01.568Z,5.85
2022-08-12T04:44:28.077Z,5.47
2022-08-12T04:46:54.728Z,6.07
2022-08-12T04:49:21.421Z,4.90
2022-08-12T04:51:54.622Z,4.85
2022-08-12T04:54:25.981Z,5.22
2022-08-12T04:57:03.591Z,5.63
2022-08-12T04:59:31.051Z,6.15
2022-08-12T05:02:16.511Z,7.15
2022-08-12T05:04:44.326Z,5.80
2022-08-12T05:07:11.600Z,5.82
2022-08-12T05:09:59.112Z,5.43
2022-08-12T05:12:25.463Z,6.72
2022-08-12T05:14:51.774Z,5.35
2022-08-12T05:17:18.046Z,5.45
2022-08-12T05:19:45.943Z,6.22
2022-08-12T05:22:12.386Z,5.43
2022-08-12T05:24:38.888Z,5.00
2022-08-12T05:27:05.187Z,4.85
2022-08-12T05:30:07.324Z,6.60
2022-08-12T05:32:20.570Z,5.07
2022-08-12T05:34:48.176Z,5.65
2022-08-12T05:37:15.009Z,5.30
2022-08-12T05:39:42.139Z,4.90
2022-08-12T05:42:09.277Z,4.88
2022-08-12T05:44:35.771Z,4.80
2022-08-12T05:47:02.097Z,5.50
2022-08-12T05:49:29.689Z,4.85
2022-08-12T05:51:56.880Z,5.32
2022-08-12T05:54:41.096Z,4.55
2022-08-12T05:57:11.568Z,3.95
2022-08-12T05:59:41.790Z,4.22
2022-08-12T06:02:13.392Z,4.47
2022-08-12T06:04:41.099Z,4.32
2022-08-12T06:07:40.050Z,4.28
2022-08-12T06:09:56.565Z,4.00
2022-08-12T06:12:23.639Z,4.78
2022-08-12T06:14:49.993Z,3.65
2022-08-12T06:17:16.732Z,3.50
2022-08-12T06:20:26.161Z,2.72
2022-08-12T06:22:29.350Z,3.80
2022-08-12T06:24:55.668Z,3.47
2022-08-12T06:27:21.991Z,4.05
2022-08-12T06:30:08.906Z,4.05
2022-08-12T06:32:34.682Z,3.60
2022-08-12T06:35:26.416Z,3.47
2022-08-12T06:37:51.309Z,2.95
2022-08-12T06:40:41.166Z,3.88
2022-08-12T06:43:07.850Z,3.78
2022-08-12T06:45:45.394Z,2.90
2022-08-12T06:48:13.066Z,3.42
2022-08-12T06:50:40.204Z,3.28
2022-08-12T06:53:27.167Z,3.42
2022-08-12T06:55:58.106Z,3.95
2022-08-12T06:58:25.131Z,3.50
2022-08-12T07:00:51.537Z,3.08
2022-08-12T07:03:23.184Z,4.07
2022-08-12T07:05:50.972Z,2.90
2022-08-12T07:08:18.032Z,3.20
2022-08-12T07:10:45.574Z,3.05
2022-08-12T07:13:11.910Z,3.40
2022-08-12T07:15:39.259Z,2.72
2022-08-12T07:18:16.924Z,2.97
2022-08-12T07:20:53.042Z,2.95
2022-08-12T07:23:19.760Z,2.92
2022-08-12T07:25:46.220Z,2.38
2022-08-12T07:28:16.249Z,2.55
2022-08-12T07:30:44.973Z,3.10
2022-08-12T07:33:12.411Z,3.25
2022-08-12T07:35:55.439Z,2.70
2022-08-12T07:38:30.667Z,3.40
2022-08-12T07:40:58.816Z,2.67
2022-08-12T07:43:27.160Z,2.63
2022-08-12T07:45:54.249Z,3.72
2022-08-12T07:48:22.024Z,2.70
2022-08-12T07:50:48.562Z,3.03
2022-08-12T07:53:15.005Z,2.47
2022-08-12T07:55:41.324Z,2.58
2022-08-12T07:58:08.719Z,2.60
2022-08-12T08:00:36.573Z,3.00
2022-08-12T08:03:03.613Z,2.85
2022-08-12T08:05:37.524Z,1.98
2022-08-12T08:08:18.495Z,3.13
2022-08-12T08:10:45.309Z,2.63
2022-08-12T08:13:12.529Z,2.58
2022-08-12T08:16:01.809Z,2.95
2022-08-12T08:18:27.458Z,1.70
2022-08-12T08:20:54.709Z,2.78
2022-08-12T08:23:21.020Z,2.53
2022-08-12T08:25:48.307Z,1.83
2022-08-12T08:28:17.041Z,2.55
2022-08-12T08:30:44.315Z,3.90
2022-08-12T08:33:24.396Z,1.73
2022-08-12T08:35:59.588Z,1.67
2022-08-12T08:38:32.946Z,1.88
2022-08-12T08:42:15.404Z,2.08
2022-08-12T08:44:07.571Z,1.90
2022-08-12T08:46:37.641Z,2.70
2022-08-12T08:49:05.292Z,1.83
2022-08-12T08:51:31.678Z,0.95
2022-08-12T08:53:58.018Z,0.93
2022-08-12T08:56:24.341Z,0.63
2022-08-12T08:58:51.097Z,0.77
2022-08-12T09:01:22.390Z,0.90
2022-08-12T09:05:09.924Z,0.80
2022-08-12T09:06:37.364Z,1.48
2022-08-12T09:09:13.137Z,0.30
2022-08-12T09:12:10.998Z,0.63
2022-08-12T09:14:42.093Z,0.40
2022-08-12T09:17:13.841Z,0.55
2022-08-12T09:19:51.145Z,0.57
2022-08-12T09:22:20.970Z,0.75
2022-08-12T09:24:48.513Z,0.47
2022-08-12T09:27:16.843Z,0.47
2022-08-12T09:30:12.039Z,0.60
2022-08-12T09:33:05.056Z,0.77
2022-08-12T09:35:18.629Z,0.55
2022-08-12T09:37:57.770Z,0.68
2022-08-12T09:41:01.265Z,0.20
2022-08-12T09:43:30.461Z,0.25
2022-08-12T09:46:06.165Z,1.27
2022-08-12T09:48:56.804Z,0.50
2022-08-12T09:51:23.587Z,0.90
2022-08-12T09:54:05.507Z,0.68
2022-08-12T09:56:58.851Z,2.05
2022-08-12T10:00:12.819Z,0.40
2022-08-12T10:02:42.742Z,0.45
2022-08-12T10:04:57.819Z,0.40
2022-08-12T10:07:25.252Z,0.40
2022-08-12T10:09:58.557Z,0.50
2022-08-12T10:13:07.688Z,1.05
2022-08-12T10:16:01.579Z,0.40
2022-08-12T10:18:19.499Z,0.55
2022-08-12T10:20:45.806Z,0.50
2022-08-12T10:23:12.646Z,0.35
2022-08-12T10:26:34.417Z,0.75
2022-08-12T10:29:03.458Z,0.95
2022-08-12T10:32:21.878Z,0.63
2022-08-12T10:34:39.981Z,0.80
2022-08-12T10:38:32.012Z,0.30
2022-08-12T10:40:12.584Z,0.40
2022-08-12T10:43:00.921Z,0.80
2022-08-12T10:45:27.327Z,0.38
2022-08-12T10:48:07.257Z,0.75
2022-08-12T10:51:00.417Z,0.50
2022-08-12T10:53:44.293Z,0.47
2022-08-12T10:56:13.063Z,0.50
2022-08-12T10:58:39.627Z,0.68
2022-08-12T11:01:49.540Z,0.63
2022-08-12T11:04:27.906Z,0.60
2022-08-12T11:07:08.079Z,0.40
2022-08-12T11:09:41.867Z,0.20
2022-08-12T11:12:55.896Z,0.30
2022-08-12T11:15:18.949Z,0.22
2022-08-12T11:17:53.765Z,0.50
2022-08-12T11:20:22.151Z,1.05
2022-08-12T11:23:04.051Z,0.38
2022-08-12T11:25:55.781Z,0.30
2022-08-12T11:28:33.969Z,0.20
2022-08-12T11:31:01.375Z,0.32
2022-08-12T11:34:03.444Z,0.28
2022-08-12T11:36:14.686Z,0.55
2022-08-12T11:38:41.286Z,0.30
2022-08-12T11:41:07.739Z,0.10
2022-08-12T11:43:50.183Z,0.20
2022-08-12T11:46:21.065Z,0.15
2022-08-12T11:48:52.124Z,0.30
2022-08-12T11:51:20.776Z,0.32
2022-08-12T11:54:01.145Z,0.50
2022-08-12T11:56:38.192Z,0.38
2022-08-12T12:02:02.279Z,0.10
2022-08-12T12:04:31.216Z,0.20
2022-08-12T12:07:07.535Z,0.20
2022-08-12T12:09:52.935Z,0.52
2022-08-12T12:12:19.997Z,0.20
2022-08-12T12:14:47.777Z,0.10
2022-08-12T12:17:21.419Z,0.52
2022-08-12T12:19:48.499Z,0.40
2022-08-12T12:22:15.709Z,0.22
2022-08-12T12:24:51.133Z,0.20
2022-08-12T12:27:20.413Z,0.10
2022-08-12T12:30:19.966Z,0.13
2022-08-12T12:32:53.739Z,0.30
2022-08-12T12:36:19.858Z,0.10
2022-08-12T12:38:11.933Z,0.10
2022-08-12T12:40:40.634Z,0.10
2022-08-12T12:43:07.981Z,0.00
2022-08-12T12:45:35.621Z,0.00
2022-08-12T12:48:01.989Z,0.05
2022-08-12T12:50:35.754Z,0.00
2022-08-12T12:53:02.629Z,0.82
2022-08-12T12:55:32.647Z,0.17
2022-08-12T12:58:04.453Z,0.47
2022-08-12T13:00:32.611Z,0.32
2022-08-12T13:02:59.606Z,0.00
2022-08-12T13:05:42.656Z,0.00
2022-08-12T13:08:21.675Z,0.03
2022-08-12T13:10:56.018Z,0.10
2022-08-12T13:14:09.815Z,0.00
2022-08-12T13:16:14.500Z,0.10
2022-08-12T13:18:45.057Z,0.10
2022-08-12T13:21:15.811Z,0.20
2022-08-12T13:23:59.239Z,0.00
2022-08-12T13:26:32.975Z,0.00
2022-08-12T13:29:00.766Z,0.10
2022-08-12T13:31:27.659Z,0.00
2022-08-12T13:34:32.422Z,0.00
2022-08-12T13:36:40.974Z,0.00
2022-08-12T13:39:07.843Z,0.08
2022-08-12T13:41:34.265Z,0.00
2022-08-12T13:44:01.334Z,0.32
2022-08-12T13:46:27.939Z,0.00
2022-08-12T13:48:55.981Z,0.00
2022-08-12T13:51:24.335Z,0.30
2022-08-12T13:53:59.212Z,0.00
2022-08-12T13:56:34.971Z,0.00
2022-08-12T13:59:03.001Z,0.00
2022-08-12T14:01:30.901Z,0.00
2022-08-12T14:03:59.708Z,0.00
2022-08-12T14:06:30.248Z,0.00
2022-08-12T14:08:56.799Z,0.00
2022-08-12T14:11:25.497Z,0.45
2022-08-12T14:14:02.756Z,0.00
2022-08-12T14:16:46.999Z,0.00
2022-08-12T14:19:22.237Z,0.00
2022-08-12T14:22:01.219Z,0.00
2022-08-12T14:24:34.913Z,0.40
2022-08-12T14:27:02.797Z,0.00
2022-08-12T14:29:55.758Z,0.00
2022-08-12T14:32:17.744Z,0.05
2022-08-12T14:34:46.098Z,0.10
2022-08-12T14:37:12.921Z,0.03
2022-08-12T14:39:40.118Z,0.10
2022-08-12T14:42:14.075Z,0.15
2022-08-12T14:44:57.196Z,0.00
2022-08-12T14:47:26.795Z,0.00
2022-08-12T14:50:41.648Z,0.03
2022-08-12T14:54:19.897Z,0.00
2022-08-12T14:58:20.007Z,0.13
2022-08-12T15:01:05.480Z,0.00
2022-08-12T15:06:39.076Z,0.00
2022-08-12T15:09:06.419Z,0.10
2022-08-12T15:11:54.881Z,0.00
2022-08-12T15:14:19.911Z,0.05
2022-08-12T15:16:48.647Z,0.00
2022-08-12T15:20:11.241Z,0.00
2022-08-12T15:22:37.104Z,0.00
2022-08-12T15:24:48.999Z,0.05
2022-08-12T15:27:15.313Z,0.03
2022-08-12T15:29:48.543Z,0.00
2022-08-12T15:32:25.261Z,0.00
2022-08-12T15:35:00.270Z,0.00
2022-08-12T15:38:08.377Z,0.00
2022-08-12T15:40:13.404Z,0.30
2022-08-12T15:42:39.775Z,0.15
2022-08-12T15:45:08.708Z,0.20
2022-08-12T15:47:49.850Z,0.13
2022-08-12T15:50:23.028Z,0.00
2022-08-12T15:52:50.106Z,0.03
2022-08-12T15:55:16.675Z,0.00
2022-08-12T15:57:53.816Z,0.10
2022-08-12T16:00:32.928Z,0.00
2022-08-12T16:03:01.833Z,0.40
2022-08-12T16:06:17.036Z,0.32
2022-08-12T16:08:27.596Z,0.00
2022-08-12T16:10:54.614Z,0.00
2022-08-12T16:13:32.594Z,0.00
2022-08-12T16:16:03.649Z,0.00
2022-08-12T16:18:35.576Z,0.00
2022-08-12T16:21:03.969Z,0.25
2022-08-12T16:23:54.826Z,0.10
2022-08-12T16:26:20.442Z,0.30
2022-08-12T16:28:55.998Z,0.10
2022-08-12T16:31:24.010Z,0.35
2022-08-12T16:36:25.572Z,0.00
2022-08-12T16:38:51.958Z,0.20
2022-08-12T16:41:18.529Z,0.00
2022-08-12T16:43:46.650Z,0.03
2022-08-12T16:48:59.597Z,0.00
2022-08-12T16:51:30.696Z,0.00
2022-08-12T16:54:03.912Z,0.20
2022-08-12T16:56:37.234Z,0.75
2022-08-12T16:59:11.994Z,0.00
2022-08-12T17:01:43.020Z,0.00
2022-08-12T17:04:09.690Z,0.35
2022-08-12T17:06:36.617Z,0.38
2022-08-12T17:09:08.579Z,0.10
2022-08-12T17:14:09.954Z,0.47
2022-08-12T17:16:37.514Z,0.10
2022-08-12T17:19:09.415Z,0.00
2022-08-12T17:21:41.130Z,0.00
2022-08-12T17:24:21.521Z,0.20
2022-08-12T17:26:49.842Z,0.22
2022-08-12T17:29:18.652Z,0.40
2022-08-12T17:32:00.299Z,0.30
2022-08-12T17:34:46.280Z,0.22
2022-08-12T17:37:14.400Z,0.00
2022-08-12T17:40:12.180Z,0.10
2022-08-12T17:42:34.706Z,0.22
2022-08-12T17:45:01.882Z,0.10
2022-08-12T17:47:45.202Z,0.00
2022-08-12T17:50:28.661Z,0.25
2022-08-12T17:53:00.461Z,0.10
2022-08-12T17:55:43.600Z,0.00
2022-08-12T17:58:14.396Z,0.20
2022-08-12T18:00:42.634Z,0.10
2022-08-12T18:05:55.542Z,0.10
2022-08-12T18:08:29.258Z,0.00
2022-08-12T18:12:03.314Z,0.60
2022-08-12T18:14:04.251Z,0.10
2022-08-12T18:16:30.553Z,0.05
2022-08-12T18:19:02.216Z,0.05
2022-08-12T18:21:28.732Z,0.10
2022-08-12T18:24:22.050Z,0.10
2022-08-12T18:26:48.929Z,0.10
2022-08-12T18:29:15.902Z,0.10
2022-08-12T18:31:44.274Z,0.00
2022-08-12T18:34:26.706Z,0.20
2022-08-12T18:36:55.619Z,0.10
2022-08-12T18:41:49.268Z,0.35
2022-08-12T18:44:15.565Z,0.20
2022-08-12T18:46:55.281Z,0.30
2022-08-12T18:49:28.013Z,0.10
2022-08-12T18:52:02.426Z,0.10
2022-08-12T18:54:32.201Z,0.10
2022-08-12T18:57:04.823Z,0.10
2022-08-12T19:00:01.209Z,0.50
2022-08-12T19:02:23.312Z,0.10
2022-08-12T19:04:52.991Z,0.30
2022-08-12T19:07:21.318Z,0.50
2022-08-12T19:09:58.996Z,0.57
2022-08-12T19:12:57.487Z,0.47
2022-08-12T19:15:25.768Z,1.00
2022-08-12T19:17:56.898Z,0.30
2022-08-12T19:20:29.945Z,0.52
2022-08-12T19:22:57.911Z,0.50
2022-08-12T19:26:00.188Z,0.52
2022-08-12T19:28:30.005Z,0.40
2022-08-12T19:31:56.004Z,0.60
2022-08-12T19:34:37.729Z,1.10
2022-08-12T19:37:08.434Z,0.60
2022-08-12T19:40:10.091Z,0.65
2022-08-12T19:42:22.987Z,0.45
2022-08-12T19:44:54.985Z,0.50
2022-08-12T19:47:22.595Z,0.40
2022-08-12T19:49:50.003Z,0.70
2022-08-12T19:52:21.173Z,0.20
2022-08-12T19:54:56.243Z,0.60
2022-08-12T19:57:23.042Z,0.80
2022-08-12T20:00:03.759Z,0.63
2022-08-12T20:02:33.765Z,0.68
2022-08-12T20:06:06.682Z,0.20
2022-08-12T20:07:59.158Z,0.55
2022-08-12T20:10:35.254Z,0.20
2022-08-12T20:13:18.760Z,0.50
2022-08-12T20:15:51.053Z,0.30
2022-08-12T20:18:44.411Z,0.45
2022-08-12T20:21:14.949Z,0.45
2022-08-12T20:23:50.711Z,0.50
2022-08-12T20:26:26.994Z,0.40
2022-08-12T20:28:54.820Z,0.50
2022-08-12T20:31:21.142Z,0.20
2022-08-12T20:33:56.761Z,0.40
2022-08-12T20:36:41.552Z,0.30
2022-08-12T20:39:37.543Z,0.30
2022-08-12T20:42:04.456Z,0.75
2022-08-12T20:44:39.999Z,0.47
2022-08-12T20:47:20.241Z,0.35
2022-08-12T20:49:55.578Z,0.60
2022-08-12T20:52:29.143Z,1.85
2022-08-12T20:54:57.663Z,1.17
2022-08-12T20:57:24.028Z,1.05
2022-08-12T20:59:52.482Z,0.50
2022-08-12T21:02:24.337Z,0.93
2022-08-12T21:05:16.404Z,1.55
2022-08-12T21:07:51.585Z,1.30
2022-08-12T21:10:18.848Z,0.98
2022-08-12T21:12:47.402Z,1.27
2022-08-12T21:15:22.908Z,1.10
2022-08-12T21:18:10.676Z,1.27
2022-08-12T21:20:49.904Z,1.33
2022-08-12T21:23:18.909Z,1.05
2022-08-12T21:25:46.044Z,1.00
2022-08-12T21:28:13.607Z,1.10
2022-08-12T21:31:11.342Z,0.85
2022-08-12T21:33:30.821Z,1.00
2022-08-12T21:35:58.099Z,0.90
2022-08-12T21:38:34.283Z,1.08
2022-08-12T21:41:01.538Z,0.88
2022-08-12T21:43:44.498Z,0.73
2022-08-12T21:46:33.673Z,0.50
2022-08-12T21:49:02.542Z,0.70
2022-08-12T21:51:48.871Z,1.02
2022-08-12T21:54:22.028Z,0.60
2022-08-12T21:56:49.010Z,0.60
2022-08-12T21:59:16.218Z,0.60
2022-08-12T22:01:48.681Z,0.73
2022-08-12T22:04:34.285Z,0.85
2022-08-12T22:07:01.548Z,1.05
2022-08-12T22:09:28.960Z,0.95
2022-08-12T22:11:59.879Z,1.50
2022-08-12T22:14:28.049Z,1.10
2022-08-12T22:16:54.897Z,0.55
2022-08-12T22:19:22.934Z,0.60
2022-08-12T22:21:53.297Z,0.80
2022-08-12T22:24:26.622Z,0.88
2022-08-12T22:26:56.458Z,0.50
2022-08-12T22:29:42.061Z,2.00
2022-08-12T22:32:11.921Z,1.23
2022-08-12T22:34:38.566Z,0.98
2022-08-12T22:37:05.726Z,0.88
2022-08-12T22:39:37.919Z,0.85
2022-08-12T22:42:30.701Z,1.55
2022-08-12T22:45:16.455Z,1.75
2022-08-12T22:47:54.465Z,1.08
2022-08-12T22:50:27.843Z,1.38
2022-08-12T22:53:14.957Z,1.50
2022-08-12T22:56:00.314Z,2.03
2022-08-12T22:58:31.826Z,4.18
2022-08-12T23:03:47.005Z,8.25
2022-08-12T23:06:11.413Z,2.47
2022-08-12T23:08:38.489Z,2.83
2022-08-12T23:11:06.330Z,3.58
2022-08-12T23:16:34.156Z,4.50
2022-08-12T23:19:10.691Z,4.00
2022-08-12T23:22:05.620Z,2.67
2022-08-12T23:24:38.547Z,2.13
2022-08-12T23:27:23.845Z,2.08
2022-08-12T23:30:19.214Z,1.90
2022-08-12T23:32:54.861Z,1.52
2022-08-12T23:35:45.757Z,1.65
2022-08-12T23:38:12.411Z,1.30
2022-08-12T23:40:56.987Z,1.77
2022-08-12T23:43:25.394Z,1.80
2022-08-12T23:46:00.606Z,1.55
2022-08-12T23:48:31.325Z,1.23
2022-08-12T23:51:01.534Z,1.20
2022-08-12T23:53:32.502Z,1.45
2022-08-12T23:55:59.524Z,1.85
2022-08-12T23:58:28.559Z,1.73
